createdAt,value
2023-01-22T00:00:19.172Z,11.3
2023-01-22T00:01:19.916Z,11.2
2023-01-22T00:02:20.545Z,11.7
2023-01-22T00:03:21.145Z,13.5
2023-01-22T00:04:21.735Z,12.0
2023-01-22T00:05:22.340Z,11.6
2023-01-22T00:06:22.926Z,15.2
2023-01-22T00:07:23.517Z,11.6
2023-01-22T00:08:24.111Z,14.1
2023-01-22T00:09:24.726Z,12.6
2023-01-22T00:10:25.317Z,12.9
2023-01-22T00:11:25.914Z,12.6
2023-01-22T00:12:26.511Z,13.0
2023-01-22T00:13:27.100Z,12.6
2023-01-22T00:14:27.782Z,12.2
2023-01-22T00:15:28.325Z,13.3
2023-01-22T00:16:28.915Z,21.0
2023-01-22T00:17:29.534Z,15.0
2023-01-22T00:18:30.126Z,13.5
2023-01-22T00:19:30.722Z,12.6
2023-01-22T00:20:31.335Z,14.1
2023-01-22T00:21:31.929Z,14.2
2023-01-22T00:22:32.528Z,13.5
2023-01-22T00:23:33.143Z,15.5
2023-01-22T00:24:33.760Z,14.0
2023-01-22T00:25:34.344Z,14.2
2023-01-22T00:26:34.935Z,13.0
2023-01-22T00:27:35.537Z,14.5
2023-01-22T00:28:36.123Z,15.1
2023-01-22T00:29:36.727Z,14.0
2023-01-22T00:30:37.320Z,14.3
2023-01-22T00:31:38.015Z,12.8
2023-01-22T00:32:38.589Z,14.3
2023-01-22T00:33:39.216Z,14.2
2023-01-22T00:34:39.800Z,14.0
2023-01-22T00:35:40.392Z,15.2
2023-01-22T00:36:40.982Z,15.4
2023-01-22T00:37:41.583Z,13.9
2023-01-22T00:38:42.169Z,15.1
2023-01-22T00:39:42.778Z,16.0
2023-01-22T00:40:43.372Z,19.3
2023-01-22T00:41:43.983Z,16.5
2023-01-22T00:42:44.577Z,14.6
2023-01-22T00:43:45.211Z,15.0
2023-01-22T00:44:45.797Z,15.6
2023-01-22T00:45:46.375Z,16.8
2023-01-22T00:46:47.020Z,17.8
2023-01-22T00:47:47.654Z,15.1
2023-01-22T00:48:48.249Z,17.2
2023-01-22T00:49:48.864Z,15.4
2023-01-22T00:50:49.478Z,16.4
2023-01-22T00:51:50.052Z,17.1
2023-01-22T00:52:50.642Z,15.2
2023-01-22T00:53:51.236Z,15.6
2023-01-22T00:54:51.829Z,15.9
2023-01-22T00:55:52.427Z,16.9
2023-01-22T00:56:53.099Z,14.8
2023-01-22T00:57:53.679Z,19.8
2023-01-22T00:58:54.296Z,17.4
2023-01-22T00:59:54.888Z,15.7
2023-01-22T01:01:01.511Z,16.9
2023-01-22T01:01:57.132Z,15.8
2023-01-22T01:02:57.682Z,16.4
2023-01-22T01:03:58.294Z,18.2
2023-01-22T01:04:58.890Z,17.1
2023-01-22T01:05:59.480Z,16.6
2023-01-22T01:07:00.094Z,18.7
2023-01-22T01:08:00.687Z,19.6
2023-01-22T01:09:01.281Z,16.7
2023-01-22T01:10:01.872Z,17.9
2023-01-22T01:11:02.464Z,20.2
2023-01-22T01:12:03.059Z,15.8
2023-01-22T01:13:03.726Z,16.2
2023-01-22T01:14:04.264Z,19.2
2023-01-22T01:15:04.871Z,17.3
2023-01-22T01:16:05.513Z,17.0
2023-01-22T01:17:06.058Z,15.7
2023-01-22T01:18:06.731Z,18.2
2023-01-22T01:19:07.298Z,20.2
2023-01-22T01:20:07.887Z,15.7
2023-01-22T01:21:08.494Z,15.9
2023-01-22T01:22:09.085Z,16.5
2023-01-22T01:23:09.680Z,17.2
2023-01-22T01:24:10.277Z,18.2
2023-01-22T01:25:10.886Z,19.3
2023-01-22T01:26:11.498Z,16.4
2023-01-22T01:27:12.097Z,17.2
2023-01-22T01:28:12.762Z,16.4
2023-01-22T01:29:13.307Z,18.3
2023-01-22T01:30:13.891Z,15.7
2023-01-22T01:31:14.614Z,22.3
2023-01-22T01:32:15.285Z,16.2
2023-01-22T01:33:15.878Z,16.6
2023-01-22T01:34:16.461Z,17.9
2023-01-22T01:35:17.055Z,17.6
2023-01-22T01:36:21.320Z,16.3
2023-01-22T01:37:18.260Z,17.6
2023-01-22T01:38:18.852Z,17.8
2023-01-22T01:39:19.463Z,17.4
2023-01-22T01:40:20.183Z,17.3
2023-01-22T01:41:20.821Z,16.0
2023-01-22T01:42:21.413Z,16.0
2023-01-22T01:43:22.078Z,17.5
2023-01-22T01:44:22.616Z,21.3
2023-01-22T01:45:23.235Z,15.7
2023-01-22T01:46:23.817Z,20.2
2023-01-22T01:47:24.418Z,17.7
2023-01-22T01:48:25.014Z,18.1
2023-01-22T01:49:25.604Z,19.2
2023-01-22T01:50:26.198Z,17.2
2023-01-22T01:51:26.795Z,18.0
2023-01-22T01:52:27.386Z,16.7
2023-01-22T01:53:27.999Z,17.0
2023-01-22T01:54:28.594Z,17.9
2023-01-22T01:55:29.187Z,18.1
2023-01-22T01:56:29.799Z,21.2
2023-01-22T01:57:30.404Z,17.6
2023-01-22T01:58:31.077Z,18.3
2023-01-22T01:59:31.615Z,17.0
2023-01-22T02:00:32.225Z,15.9
2023-01-22T02:01:32.814Z,15.4
2023-01-22T02:02:33.393Z,18.6
2023-01-22T02:03:34.009Z,18.0
2023-01-22T02:04:34.627Z,15.8
2023-01-22T02:05:35.216Z,18.1
2023-01-22T02:06:35.808Z,16.1
2023-01-22T02:07:36.404Z,19.8
2023-01-22T02:08:36.995Z,20.8
2023-01-22T02:09:37.609Z,17.1
2023-01-22T02:10:38.201Z,17.0
2023-01-22T02:11:38.794Z,18.6
2023-01-22T02:12:39.387Z,18.1
2023-01-22T02:13:40.046Z,17.1
2023-01-22T02:14:40.609Z,18.9
2023-01-22T02:15:41.181Z,16.5
2023-01-22T02:16:41.799Z,18.6
2023-01-22T02:17:42.366Z,16.9
2023-01-22T02:18:42.960Z,15.9
2023-01-22T02:19:43.554Z,18.7
2023-01-22T02:20:44.166Z,16.2
2023-01-22T02:21:44.761Z,17.8
2023-01-22T02:22:45.351Z,16.8
2023-01-22T02:23:45.945Z,17.0
2023-01-22T02:24:46.541Z,18.5
2023-01-22T02:25:47.134Z,14.9
2023-01-22T02:26:47.739Z,18.2
2023-01-22T02:27:48.321Z,16.3
2023-01-22T02:28:48.983Z,17.1
2023-01-22T02:29:49.528Z,15.8
2023-01-22T02:30:50.154Z,15.3
2023-01-22T02:31:50.742Z,15.0
2023-01-22T02:32:51.300Z,16.9
2023-01-22T02:33:51.896Z,18.1
2023-01-22T02:34:52.494Z,16.6
2023-01-22T02:35:53.136Z,15.7
2023-01-22T02:36:53.699Z,16.4
2023-01-22T02:37:54.296Z,15.0
2023-01-22T02:38:54.887Z,13.6
2023-01-22T02:39:55.494Z,13.8
2023-01-22T02:40:56.079Z,14.0
2023-01-22T02:41:56.670Z,14.1
2023-01-22T02:42:57.260Z,14.5
2023-01-22T02:43:57.942Z,13.2
2023-01-22T02:44:58.481Z,13.8
2023-01-22T02:45:59.115Z,13.5
2023-01-22T02:46:59.676Z,13.9
2023-01-22T02:48:00.269Z,14.0
2023-01-22T02:49:00.862Z,13.9
2023-01-22T02:50:01.455Z,13.5
2023-01-22T02:51:02.093Z,12.6
2023-01-22T02:52:02.679Z,12.9
2023-01-22T02:53:03.269Z,12.3
2023-01-22T02:54:03.896Z,13.5
2023-01-22T02:55:04.478Z,13.1
2023-01-22T02:56:05.071Z,13.1
2023-01-22T02:57:05.663Z,11.8
2023-01-22T02:58:06.274Z,14.1
2023-01-22T02:59:06.925Z,11.6
2023-01-22T03:00:07.467Z,13.9
2023-01-22T03:01:08.129Z,12.5
2023-01-22T03:02:08.755Z,13.1
2023-01-22T03:03:09.330Z,13.4
2023-01-22T03:04:09.924Z,13.5
2023-01-22T03:05:10.516Z,12.8
2023-01-22T03:06:11.108Z,12.5
2023-01-22T03:07:11.722Z,13.0
2023-01-22T03:08:12.336Z,12.8
2023-01-22T03:09:12.936Z,11.7
2023-01-22T03:10:13.546Z,12.1
2023-01-22T03:11:14.153Z,11.4
2023-01-22T03:12:14.745Z,12.4
2023-01-22T03:13:15.338Z,12.6
2023-01-22T03:14:15.999Z,11.7
2023-01-22T03:15:16.537Z,12.0
2023-01-22T03:16:17.216Z,11.8
2023-01-22T03:17:17.759Z,12.0
2023-01-22T03:18:18.354Z,12.0
2023-01-22T03:19:18.947Z,13.3
2023-01-22T03:20:19.773Z,12.9
2023-01-22T03:21:20.443Z,11.8
2023-01-22T03:22:21.038Z,11.6
2023-01-22T03:23:21.631Z,11.6
2023-01-22T03:24:22.220Z,12.5
2023-01-22T03:25:22.832Z,11.7
2023-01-22T03:26:23.409Z,11.8
2023-01-22T03:27:23.996Z,11.3
2023-01-22T03:28:24.592Z,11.4
2023-01-22T03:29:25.254Z,11.9
2023-01-22T03:30:25.789Z,11.5
2023-01-22T03:31:26.497Z,12.5
2023-01-22T03:32:27.008Z,12.5
2023-01-22T03:33:27.598Z,12.0
2023-01-22T03:34:28.210Z,11.7
2023-01-22T03:35:28.807Z,11.2
2023-01-22T03:36:29.402Z,10.9
2023-01-22T03:37:30.009Z,10.8
2023-01-22T03:38:30.589Z,10.7
2023-01-22T03:39:31.183Z,10.6
2023-01-22T03:40:31.777Z,11.5
2023-01-22T03:41:32.370Z,11.8
2023-01-22T03:42:32.980Z,12.1
2023-01-22T03:43:33.561Z,11.5
2023-01-22T03:44:34.226Z,10.7
2023-01-22T03:45:34.816Z,11.3
2023-01-22T03:46:35.361Z,11.6
2023-01-22T03:47:35.953Z,12.0
2023-01-22T03:48:36.554Z,11.5
2023-01-22T03:49:37.139Z,11.7
2023-01-22T03:50:37.737Z,11.0
2023-01-22T03:51:38.349Z,11.1
2023-01-22T03:52:38.944Z,11.5
2023-01-22T03:53:39.559Z,11.3
2023-01-22T03:54:40.166Z,11.5
2023-01-22T03:55:40.743Z,11.2
2023-01-22T03:56:41.347Z,11.8
2023-01-22T03:57:41.940Z,12.1
2023-01-22T03:58:42.535Z,11.1
2023-01-22T03:59:43.219Z,11.0
2023-01-22T04:00:43.735Z,10.7
2023-01-22T04:01:44.363Z,11.1
2023-01-22T04:02:44.994Z,11.8
2023-01-22T04:03:45.545Z,11.2
2023-01-22T04:04:46.143Z,12.1
2023-01-22T04:05:46.735Z,10.9
2023-01-22T04:06:47.328Z,10.9
2023-01-22T04:07:47.918Z,11.4
2023-01-22T04:08:48.512Z,10.7
2023-01-22T04:09:49.105Z,11.3
2023-01-22T04:10:49.698Z,10.9
2023-01-22T04:11:50.290Z,12.4
2023-01-22T04:12:50.887Z,11.2
2023-01-22T04:13:51.494Z,11.6
2023-01-22T04:14:52.140Z,10.9
2023-01-22T04:15:52.679Z,10.6
2023-01-22T04:16:53.359Z,10.5
2023-01-22T04:17:53.911Z,10.5
2023-01-22T04:18:54.509Z,10.7
2023-01-22T04:19:55.095Z,11.7
2023-01-22T04:20:55.692Z,10.2
2023-01-22T04:21:56.282Z,10.2
2023-01-22T04:22:56.880Z,10.3
2023-01-22T04:23:57.472Z,11.1
2023-01-22T04:24:58.063Z,9.8
2023-01-22T04:25:58.656Z,10.1
2023-01-22T04:26:59.249Z,11.1
2023-01-22T04:27:59.843Z,10.8
2023-01-22T04:29:00.443Z,11.1
2023-01-22T04:30:01.119Z,10.6
2023-01-22T04:31:01.742Z,10.0
2023-01-22T04:32:02.261Z,10.1
2023-01-22T04:33:02.876Z,10.2
2023-01-22T04:34:03.474Z,10.0
2023-01-22T04:35:04.077Z,10.4
2023-01-22T04:36:04.697Z,9.9
2023-01-22T04:37:05.281Z,10.2
2023-01-22T04:38:05.924Z,9.9
2023-01-22T04:39:06.513Z,9.4
2023-01-22T04:40:07.116Z,9.9
2023-01-22T04:41:07.701Z,10.8
2023-01-22T04:42:08.292Z,10.2
2023-01-22T04:43:08.882Z,9.6
2023-01-22T04:44:09.478Z,8.3
2023-01-22T04:45:10.145Z,8.7
2023-01-22T04:46:10.716Z,8.5
2023-01-22T04:47:11.296Z,9.0
2023-01-22T04:48:11.883Z,9.0
2023-01-22T04:49:12.475Z,9.4
2023-01-22T04:50:13.067Z,8.7
2023-01-22T04:51:13.693Z,8.9
2023-01-22T04:52:14.267Z,8.9
2023-01-22T04:53:14.857Z,9.2
2023-01-22T04:54:15.542Z,8.2
2023-01-22T04:55:16.142Z,8.7
2023-01-22T04:56:16.723Z,9.0
2023-01-22T04:57:17.319Z,8.9
2023-01-22T04:58:17.905Z,8.6
2023-01-22T04:59:18.500Z,9.0
2023-01-22T05:00:19.551Z,7.8
2023-01-22T05:01:19.721Z,8.4
2023-01-22T05:02:20.322Z,8.8
2023-01-22T05:03:20.873Z,8.3
2023-01-22T05:04:21.463Z,7.3
2023-01-22T05:05:22.070Z,7.6
2023-01-22T05:06:22.648Z,7.7
2023-01-22T05:07:23.237Z,8.3
2023-01-22T05:08:23.831Z,8.0
2023-01-22T05:09:24.425Z,8.0
2023-01-22T05:10:25.029Z,8.6
2023-01-22T05:11:25.628Z,8.0
2023-01-22T05:12:26.218Z,8.2
2023-01-22T05:13:26.837Z,7.6
2023-01-22T05:14:27.426Z,8.1
2023-01-22T05:15:28.086Z,7.0
2023-01-22T05:16:28.657Z,7.1
2023-01-22T05:17:29.237Z,8.2
2023-01-22T05:18:29.832Z,7.7
2023-01-22T05:19:30.445Z,7.9
2023-01-22T05:20:31.029Z,7.7
2023-01-22T05:21:31.619Z,7.6
2023-01-22T05:22:32.211Z,8.0
2023-01-22T05:23:32.803Z,7.9
2023-01-22T05:24:33.398Z,8.3
2023-01-22T05:25:34.002Z,7.4
2023-01-22T05:26:34.810Z,8.2
2023-01-22T05:27:35.402Z,8.7
2023-01-22T05:28:35.997Z,8.7
2023-01-22T05:29:36.588Z,8.3
2023-01-22T05:30:37.333Z,9.1
2023-01-22T05:31:37.830Z,9.6
2023-01-22T05:32:38.382Z,8.7
2023-01-22T05:33:38.976Z,9.7
2023-01-22T05:34:39.575Z,9.5
2023-01-22T05:35:40.158Z,10.4
2023-01-22T05:36:40.751Z,10.1
2023-01-22T05:37:41.340Z,10.2
2023-01-22T05:38:41.932Z,9.8
2023-01-22T05:39:42.527Z,9.4
2023-01-22T05:40:43.138Z,9.8
2023-01-22T05:41:43.709Z,11.0
2023-01-22T05:42:44.303Z,10.3
2023-01-22T05:43:44.894Z,10.9
2023-01-22T05:44:45.506Z,11.0
2023-01-22T05:45:46.175Z,10.9
2023-01-22T05:46:46.927Z,10.6
2023-01-22T05:47:47.519Z,11.1
2023-01-22T05:48:48.111Z,10.7
2023-01-22T05:49:48.721Z,10.4
2023-01-22T05:50:49.338Z,10.3
2023-01-22T05:51:49.888Z,10.3
2023-01-22T05:52:50.484Z,11.0
2023-01-22T05:53:51.080Z,10.0
2023-01-22T05:54:51.670Z,11.0
2023-01-22T05:55:52.260Z,10.3
2023-01-22T05:56:52.852Z,9.9
2023-01-22T05:57:53.442Z,9.5
2023-01-22T05:58:54.037Z,9.2
2023-01-22T05:59:54.627Z,9.5
2023-01-22T06:00:55.294Z,8.4
2023-01-22T06:01:55.825Z,9.5
2023-01-22T06:02:56.507Z,8.5
2023-01-22T06:03:57.072Z,9.2
2023-01-22T06:04:57.699Z,8.0
2023-01-22T06:05:58.262Z,9.4
2023-01-22T06:06:58.853Z,8.7
2023-01-22T06:07:59.442Z,9.3
2023-01-22T06:09:00.045Z,9.1
2023-01-22T06:10:00.642Z,9.9
2023-01-22T06:11:01.218Z,10.4
2023-01-22T06:12:01.828Z,9.9
2023-01-22T06:13:02.428Z,9.5
2023-01-22T06:14:03.015Z,9.3
2023-01-22T06:15:03.607Z,9.3
2023-01-22T06:16:04.392Z,10.5
2023-01-22T06:17:04.808Z,10.3
2023-01-22T06:18:05.400Z,10.2
2023-01-22T06:19:06.010Z,11.7
2023-01-22T06:20:06.589Z,10.8
2023-01-22T06:21:07.183Z,10.2
2023-01-22T06:22:07.775Z,10.6
2023-01-22T06:23:08.376Z,10.1
2023-01-22T06:24:08.957Z,10.3
2023-01-22T06:25:09.549Z,11.3
2023-01-22T06:26:10.141Z,10.5
2023-01-22T06:27:10.751Z,11.1
2023-01-22T06:28:11.358Z,10.8
2023-01-22T06:29:11.941Z,10.3
2023-01-22T06:30:12.532Z,11.1
2023-01-22T06:31:13.373Z,10.5
2023-01-22T06:32:13.736Z,10.6
2023-01-22T06:33:14.322Z,9.5
2023-01-22T06:34:14.943Z,10.5
2023-01-22T06:35:15.529Z,10.6
2023-01-22T06:36:16.127Z,9.9
2023-01-22T06:37:16.735Z,10.8
2023-01-22T06:38:17.341Z,10.8
2023-01-22T06:39:17.934Z,9.0
2023-01-22T06:40:18.822Z,9.9
2023-01-22T06:41:19.545Z,11.0
2023-01-22T06:42:20.134Z,9.7
2023-01-22T06:43:20.729Z,10.1
2023-01-22T06:44:21.317Z,9.3
2023-01-22T06:45:21.911Z,10.1
2023-01-22T06:46:22.627Z,9.6
2023-01-22T06:47:23.128Z,9.8
2023-01-22T06:48:23.725Z,10.3
2023-01-22T06:49:24.326Z,9.9
2023-01-22T06:50:24.908Z,10.0
2023-01-22T06:51:25.547Z,11.3
2023-01-22T06:52:26.145Z,10.3
2023-01-22T06:53:26.749Z,10.9
2023-01-22T06:54:27.358Z,10.9
2023-01-22T06:55:27.947Z,10.4
2023-01-22T06:56:28.537Z,10.7
2023-01-22T06:57:29.132Z,10.9
2023-01-22T06:58:29.723Z,10.7
2023-01-22T06:59:30.312Z,10.5
2023-01-22T07:00:30.944Z,10.3
2023-01-22T07:01:31.628Z,10.0
2023-01-22T07:02:32.107Z,11.4
2023-01-22T07:03:32.756Z,11.1
2023-01-22T07:04:33.325Z,11.3
2023-01-22T07:05:33.919Z,11.5
2023-01-22T07:06:34.512Z,10.9
2023-01-22T07:07:35.106Z,11.4
2023-01-22T07:08:35.697Z,12.3
2023-01-22T07:09:36.294Z,12.5
2023-01-22T07:10:36.887Z,12.2
2023-01-22T07:11:37.483Z,12.2
2023-01-22T07:12:38.078Z,13.1
2023-01-22T07:13:38.673Z,12.5
2023-01-22T07:14:39.306Z,11.9
2023-01-22T07:15:39.884Z,11.3
2023-01-22T07:16:40.544Z,12.6
2023-01-22T07:17:41.088Z,11.5
2023-01-22T07:18:41.686Z,11.4
2023-01-22T07:19:42.273Z,12.5
2023-01-22T07:20:42.862Z,11.9
2023-01-22T07:21:43.480Z,12.8
2023-01-22T07:22:44.076Z,12.4
2023-01-22T07:23:44.669Z,11.5
2023-01-22T07:24:45.269Z,11.2
2023-01-22T07:25:45.865Z,11.6
2023-01-22T07:26:46.473Z,10.6
2023-01-22T07:27:47.069Z,11.5
2023-01-22T07:28:47.665Z,12.0
2023-01-22T07:29:48.275Z,11.5
2023-01-22T07:30:48.876Z,11.3
2023-01-22T07:31:50.009Z,12.2
2023-01-22T07:32:50.064Z,11.3
2023-01-22T07:33:50.659Z,12.8
2023-01-22T07:34:51.253Z,11.7
2023-01-22T07:35:51.867Z,11.8
2023-01-22T07:36:52.467Z,12.0
2023-01-22T07:37:53.080Z,12.1
2023-01-22T07:38:53.656Z,11.6
2023-01-22T07:39:54.251Z,12.4
2023-01-22T07:40:54.867Z,12.3
2023-01-22T07:41:55.461Z,12.2
2023-01-22T07:42:56.062Z,11.9
2023-01-22T07:43:56.652Z,12.6
2023-01-22T07:44:57.272Z,12.1
2023-01-22T07:45:57.886Z,11.2
2023-01-22T07:46:58.537Z,13.3
2023-01-22T07:47:59.069Z,12.7
2023-01-22T07:48:59.668Z,13.0
2023-01-22T07:50:00.298Z,12.6
2023-01-22T07:51:00.921Z,13.5
2023-01-22T07:52:01.486Z,12.3
2023-01-22T07:53:02.078Z,14.0
2023-01-22T07:54:02.676Z,13.2
2023-01-22T07:55:03.289Z,13.7
2023-01-22T07:56:03.887Z,14.7
2023-01-22T07:57:04.487Z,15.3
2023-01-22T07:58:05.082Z,16.0
2023-01-22T07:59:05.676Z,13.8
2023-01-22T08:00:06.287Z,17.0
2023-01-22T08:01:06.892Z,14.8
2023-01-22T08:02:07.584Z,14.2
2023-01-22T08:03:08.089Z,19.0
2023-01-22T08:04:08.686Z,15.1
2023-01-22T08:05:09.305Z,15.0
2023-01-22T08:06:09.917Z,15.7
2023-01-22T08:07:10.528Z,19.3
2023-01-22T08:08:11.123Z,17.2
2023-01-22T08:09:11.715Z,16.4
2023-01-22T08:10:12.312Z,18.3
2023-01-22T08:11:12.914Z,17.7
2023-01-22T08:12:13.526Z,16.7
2023-01-22T08:13:14.132Z,17.2
2023-01-22T08:14:14.732Z,20.7
2023-01-22T08:15:15.327Z,15.6
2023-01-22T08:16:16.087Z,16.9
2023-01-22T08:17:16.725Z,15.6
2023-01-22T08:18:19.083Z,16.8
2023-01-22T08:19:18.851Z,18.3
2023-01-22T08:20:19.752Z,18.1
2023-01-22T08:21:20.062Z,14.0
2023-01-22T08:22:20.657Z,15.5
2023-01-22T08:23:22.181Z,17.8
2023-01-22T08:24:22.773Z,14.1
2023-01-22T08:25:23.387Z,17.2
2023-01-22T08:26:24.000Z,14.5
2023-01-22T08:27:24.596Z,14.3
2023-01-22T08:28:25.191Z,15.4
2023-01-22T08:29:25.789Z,12.5
2023-01-22T08:30:26.508Z,13.1
2023-01-22T08:31:28.578Z,13.5
2023-01-22T08:32:34.680Z,14.5
2023-01-22T08:33:30.315Z,11.6
2023-01-22T08:34:30.860Z,12.5
2023-01-22T08:35:31.448Z,12.5
2023-01-22T08:36:32.049Z,13.4
2023-01-22T08:37:32.662Z,13.1
2023-01-22T08:38:33.279Z,13.5
2023-01-22T08:39:33.872Z,17.3
2023-01-22T08:40:36.005Z,14.8
2023-01-22T08:41:35.080Z,13.0
2023-01-22T08:42:35.676Z,14.0
2023-01-22T08:43:36.290Z,12.7
2023-01-22T08:44:36.894Z,14.1
2023-01-22T08:45:37.568Z,14.0
2023-01-22T08:46:38.118Z,11.9
2023-01-22T08:47:38.713Z,12.4
2023-01-22T08:48:39.376Z,12.4
2023-01-22T08:49:39.925Z,11.4
2023-01-22T08:50:40.520Z,11.9
2023-01-22T08:51:41.116Z,10.8
2023-01-22T08:52:41.713Z,14.6
2023-01-22T08:53:42.310Z,12.9
2023-01-22T08:54:42.907Z,11.8
2023-01-22T08:55:43.508Z,11.3
2023-01-22T08:56:44.107Z,12.2
2023-01-22T08:57:44.701Z,12.8
2023-01-22T08:58:45.300Z,12.0
2023-01-22T08:59:59.763Z,11.6
2023-01-22T09:00:47.519Z,11.7
2023-01-22T09:01:48.111Z,10.8
2023-01-22T09:02:48.696Z,11.3
2023-01-22T09:03:49.367Z,12.0
2023-01-22T09:04:49.899Z,11.5
2023-01-22T09:05:50.498Z,11.9
2023-01-22T09:06:51.085Z,11.6
2023-01-22T09:07:51.688Z,11.8
2023-01-22T09:08:52.279Z,13.0
2023-01-22T09:09:52.875Z,13.0
2023-01-22T09:10:53.500Z,12.9
2023-01-22T09:11:54.107Z,13.0
2023-01-22T09:12:54.713Z,14.2
2023-01-22T09:13:55.306Z,12.6
2023-01-22T09:14:55.903Z,12.4
2023-01-22T09:15:58.451Z,12.2
2023-01-22T09:16:58.091Z,13.5
2023-01-22T09:17:58.689Z,12.5
2023-01-22T09:18:59.361Z,12.5
2023-01-22T09:19:59.904Z,13.7
2023-01-22T09:21:00.527Z,13.1
2023-01-22T09:22:01.093Z,13.2
2023-01-22T09:23:01.693Z,13.1
2023-01-22T09:24:02.290Z,14.7
2023-01-22T09:25:02.895Z,13.7
2023-01-22T09:26:03.491Z,12.5
2023-01-22T09:27:04.092Z,11.4
2023-01-22T09:28:04.679Z,11.7
2023-01-22T09:29:05.278Z,12.3
2023-01-22T09:30:05.873Z,12.1
2023-01-22T09:31:06.508Z,12.9
2023-01-22T09:32:07.092Z,12.0
2023-01-22T09:33:07.675Z,11.8
2023-01-22T09:34:08.332Z,12.0
2023-01-22T09:35:08.881Z,11.3
2023-01-22T09:36:09.486Z,12.8
2023-01-22T09:37:10.082Z,11.3
2023-01-22T09:38:10.673Z,11.2
2023-01-22T09:39:11.289Z,11.5
2023-01-22T09:40:11.891Z,11.5
2023-01-22T09:41:12.488Z,11.9
2023-01-22T09:42:13.082Z,12.9
2023-01-22T09:43:13.680Z,11.4
2023-01-22T09:44:14.275Z,12.2
2023-01-22T09:45:14.876Z,12.0
2023-01-22T09:46:15.542Z,11.7
2023-01-22T09:47:16.125Z,12.4
2023-01-22T09:48:16.722Z,12.4
2023-01-22T09:49:23.156Z,13.8
2023-01-22T09:50:19.310Z,12.5
2023-01-22T09:51:19.576Z,12.9
2023-01-22T09:52:20.171Z,13.3
2023-01-22T09:53:20.768Z,12.7
2023-01-22T09:54:21.371Z,14.8
2023-01-22T09:55:21.964Z,15.7
2023-01-22T09:56:22.566Z,13.7
2023-01-22T09:57:31.717Z,12.9
2023-01-22T09:58:24.632Z,13.2
2023-01-22T09:59:25.249Z,15.7
2023-01-22T10:00:25.825Z,13.4
2023-01-22T10:01:26.461Z,13.1
2023-01-22T10:02:27.058Z,15.1
2023-01-22T10:03:27.627Z,13.2
2023-01-22T10:04:28.246Z,14.4
2023-01-22T10:05:28.907Z,13.9
2023-01-22T10:06:29.468Z,13.5
2023-01-22T10:07:30.042Z,13.8
2023-01-22T10:08:30.640Z,13.9
2023-01-22T10:09:31.235Z,14.5
2023-01-22T10:10:31.831Z,13.3
2023-01-22T10:11:32.427Z,13.3
2023-01-22T10:12:33.024Z,13.2
2023-01-22T10:13:33.622Z,14.6
2023-01-22T10:14:34.231Z,14.6
2023-01-22T10:15:34.839Z,13.7
2023-01-22T10:16:35.514Z,15.0
2023-01-22T10:17:36.060Z,12.5
2023-01-22T10:18:36.657Z,14.2
2023-01-22T10:19:37.274Z,14.5
2023-01-22T10:20:38.028Z,13.9
2023-01-22T10:21:38.534Z,13.4
2023-01-22T10:22:39.132Z,13.8
2023-01-22T10:23:39.726Z,13.9
2023-01-22T10:24:40.323Z,14.9
2023-01-22T10:25:40.922Z,12.7
2023-01-22T10:26:41.527Z,13.7
2023-01-22T10:27:42.117Z,14.2
2023-01-22T10:28:42.716Z,13.6
2023-01-22T10:29:43.317Z,14.5
2023-01-22T10:30:43.980Z,13.7
2023-01-22T10:31:44.632Z,12.6
2023-01-22T10:32:45.206Z,12.6
2023-01-22T10:33:45.815Z,12.5
2023-01-22T10:34:46.403Z,12.3
2023-01-22T10:35:47.068Z,12.6
2023-01-22T10:36:47.609Z,11.8
2023-01-22T10:37:48.209Z,11.8
2023-01-22T10:38:48.826Z,12.0
2023-01-22T10:39:49.425Z,11.9
2023-01-22T10:40:50.021Z,11.8
2023-01-22T10:41:50.618Z,12.4
2023-01-22T10:42:51.214Z,12.0
2023-01-22T10:43:51.814Z,10.3
2023-01-22T10:44:52.421Z,12.4
2023-01-22T10:45:53.074Z,11.1
2023-01-22T10:46:53.661Z,11.3
2023-01-22T10:47:54.258Z,11.5
2023-01-22T10:48:54.859Z,11.2
2023-01-22T10:49:55.455Z,10.9
2023-01-22T10:50:56.143Z,10.0
2023-01-22T10:51:56.674Z,10.0
2023-01-22T10:52:57.262Z,10.7
2023-01-22T10:53:57.861Z,11.6
2023-01-22T10:54:58.461Z,10.8
2023-01-22T10:55:59.137Z,10.9
2023-01-22T10:56:59.752Z,10.7
2023-01-22T10:58:00.350Z,10.1
2023-01-22T10:59:00.949Z,10.8
2023-01-22T11:00:01.545Z,10.5
2023-01-22T11:01:02.175Z,10.5
2023-01-22T11:02:02.743Z,11.1
2023-01-22T11:03:03.338Z,12.0
2023-01-22T11:04:03.937Z,11.2
2023-01-22T11:05:04.535Z,10.3
2023-01-22T11:06:05.200Z,12.5
2023-01-22T11:07:05.744Z,11.0
2023-01-22T11:08:06.341Z,10.2
2023-01-22T11:09:06.938Z,10.2
2023-01-22T11:10:07.535Z,9.3
2023-01-22T11:11:08.127Z,9.6
2023-01-22T11:12:08.727Z,9.8
2023-01-22T11:13:09.325Z,10.4
2023-01-22T11:14:09.925Z,9.5
2023-01-22T11:15:10.524Z,10.7
2023-01-22T11:16:11.179Z,10.4
2023-01-22T11:17:11.765Z,10.0
2023-01-22T11:18:12.360Z,10.0
2023-01-22T11:19:12.961Z,9.5
2023-01-22T11:20:13.572Z,9.6
2023-01-22T11:21:14.248Z,10.5
2023-01-22T11:22:14.795Z,10.1
2023-01-22T11:23:15.387Z,11.4
2023-01-22T11:24:16.048Z,10.5
2023-01-22T11:25:16.646Z,10.2
2023-01-22T11:26:17.231Z,8.8
2023-01-22T11:27:17.831Z,11.2
2023-01-22T11:28:18.427Z,9.2
2023-01-22T11:29:19.036Z,8.9
2023-01-22T11:30:21.928Z,9.4
2023-01-22T11:31:20.327Z,9.6
2023-01-22T11:32:20.877Z,11.6
2023-01-22T11:33:21.472Z,9.7
2023-01-22T11:34:22.085Z,9.0
2023-01-22T11:35:22.659Z,9.4
2023-01-22T11:36:23.339Z,9.2
2023-01-22T11:37:23.886Z,11.1
2023-01-22T11:38:24.481Z,13.4
2023-01-22T11:39:25.079Z,9.6
2023-01-22T11:40:25.695Z,9.6
2023-01-22T11:41:26.273Z,11.4
2023-01-22T11:42:26.869Z,9.8
2023-01-22T11:43:27.467Z,13.8
2023-01-22T11:44:28.064Z,9.9
2023-01-22T11:45:28.661Z,10.2
2023-01-22T11:46:29.274Z,10.1
2023-01-22T11:47:29.854Z,10.9
2023-01-22T11:48:30.449Z,10.7
2023-01-22T11:49:31.047Z,10.5
2023-01-22T11:50:31.646Z,14.6
2023-01-22T11:51:32.315Z,12.0
2023-01-22T11:52:32.860Z,16.2
2023-01-22T11:53:33.477Z,10.7
2023-01-22T11:54:34.092Z,10.5
2023-01-22T11:55:34.689Z,9.8
2023-01-22T11:56:35.289Z,14.3
2023-01-22T11:57:35.887Z,11.7
2023-01-22T11:58:36.484Z,11.4
2023-01-22T11:59:37.089Z,11.4
2023-01-22T12:00:37.679Z,13.7
2023-01-22T12:01:38.277Z,10.8
2023-01-22T12:02:38.903Z,11.3
2023-01-22T12:03:39.504Z,11.5
2023-01-22T12:04:40.087Z,12.6
2023-01-22T12:05:40.707Z,13.9
2023-01-22T12:06:41.371Z,15.2
2023-01-22T12:07:42.000Z,15.0
2023-01-22T12:08:42.600Z,16.9
2023-01-22T12:09:43.200Z,18.5
2023-01-22T12:10:43.808Z,13.6
2023-01-22T12:11:44.403Z,17.3
2023-01-22T12:12:44.994Z,16.8
2023-01-22T12:13:45.595Z,13.0
2023-01-22T12:14:46.200Z,15.9
2023-01-22T12:15:46.880Z,14.2
2023-01-22T12:16:47.422Z,20.2
2023-01-22T12:17:48.042Z,16.8
2023-01-22T12:18:48.615Z,15.0
2023-01-22T12:19:49.214Z,24.2
2023-01-22T12:20:49.825Z,21.3
2023-01-22T12:21:50.483Z,16.6
2023-01-22T12:22:51.031Z,19.2
2023-01-22T12:23:51.628Z,38.9
2023-01-22T12:24:52.250Z,16.7
2023-01-22T12:25:52.882Z,18.3
2023-01-22T12:26:53.467Z,39.3
2023-01-22T12:27:54.062Z,22.8
2023-01-22T12:28:54.679Z,13.9
2023-01-22T12:29:55.289Z,12.7
2023-01-22T12:30:55.989Z,22.1
2023-01-22T12:31:56.619Z,19.3
2023-01-22T12:32:57.273Z,20.4
2023-01-22T12:33:57.873Z,14.8
2023-01-22T12:34:58.496Z,19.5
2023-01-22T12:35:59.091Z,20.7
2023-01-22T12:36:59.760Z,16.0
2023-01-22T12:38:00.304Z,16.2
2023-01-22T12:39:00.930Z,13.4
2023-01-22T12:40:01.549Z,18.9
2023-01-22T12:41:02.166Z,28.5
2023-01-22T12:42:02.786Z,21.7
2023-01-22T12:43:03.380Z,21.5
2023-01-22T12:44:03.979Z,29.4
2023-01-22T12:45:04.580Z,25.5
2023-01-22T12:46:05.178Z,33.4
2023-01-22T12:47:05.777Z,25.2
2023-01-22T12:48:06.377Z,20.0
2023-01-22T12:49:06.977Z,31.4
2023-01-22T12:50:07.594Z,20.6
2023-01-22T12:51:08.204Z,24.9
2023-01-22T12:52:08.850Z,32.6
2023-01-22T12:53:09.385Z,38.1
2023-01-22T12:54:10.011Z,18.5
2023-01-22T12:55:10.628Z,23.9
2023-01-22T12:56:11.223Z,27.6
2023-01-22T12:57:11.825Z,32.6
2023-01-22T12:58:12.443Z,22.2
2023-01-22T12:59:13.047Z,20.6
2023-01-22T13:00:13.661Z,34.3
2023-01-22T13:01:14.258Z,24.6
2023-01-22T13:02:14.934Z,26.5
2023-01-22T13:03:26.700Z,30.8
2023-01-22T13:04:17.116Z,23.5
2023-01-22T13:05:17.715Z,23.6
2023-01-22T13:06:18.313Z,21.6
2023-01-22T13:07:18.977Z,20.8
2023-01-22T13:08:19.556Z,23.6
2023-01-22T13:09:20.124Z,19.7
2023-01-22T13:10:21.228Z,25.8
2023-01-22T13:11:22.075Z,24.2
2023-01-22T13:12:22.681Z,23.2
2023-01-22T13:13:23.272Z,25.6
2023-01-22T13:14:23.930Z,24.5
2023-01-22T13:15:24.487Z,20.2
2023-01-22T13:16:25.158Z,21.8
2023-01-22T13:17:25.704Z,24.1
2023-01-22T13:18:26.308Z,25.8
2023-01-22T13:19:26.901Z,20.5
2023-01-22T13:20:27.500Z,24.3
2023-01-22T13:21:28.099Z,25.6
2023-01-22T13:22:28.768Z,32.3
2023-01-22T13:23:29.310Z,37.7
2023-01-22T13:24:29.908Z,40.9
2023-01-22T13:25:30.523Z,27.3
2023-01-22T13:26:31.128Z,20.3
2023-01-22T13:27:31.723Z,26.3
2023-01-22T13:28:32.321Z,26.1
2023-01-22T13:29:33.058Z,26.7
2023-01-22T13:30:33.719Z,28.7